Gould, Arkansas
Current Conditions -  °F | °C
As of 6:53 PM on Saturday 25 Oct 2014 (Local Time) from KPBF Reporting Station
Clear Clear  
Wind Chill: 23°   Ceiling: Unl
Heat Index: 23°   Visibility: 10mi
Dew Point: 18°   Wind: 6mph
Humidity: 73%   Direction: 220°SW
Pressure: 30.04"   Gusts: NA
Location:  33.99°N, 91.56°W
Report Text: KPBF 252353Z AUTO 22005KT 10SM CLR 23/18 A3004 RMK AO2 SLP170 T02330183 10283 20233 55001
Loading
Personal Weather Stations






























Interactive Weather Map
Tropical Storm Tracking
New forecast layout! Learn more

10-Day Weather Forecast

Advertisements
Track Severe Weather on mobile